sensor_id;sensor_type;location;lat;lon;timestamp;pressure;altitude;pressure_sealevel;temperature
19040;BMP180;9652;49.014;12.052;2024-03-08T00:01:01;97950.00;;;4.70
19040;BMP180;9652;49.014;12.052;2024-03-08T00:03:28;97950.00;;;4.70
19040;BMP180;9652;49.014;12.052;2024-03-08T00:05:56;97940.00;;;4.70
19040;BMP180;9652;49.014;12.052;2024-03-08T00:08:23;97938.00;;;4.70
19040;BMP180;9652;49.014;12.052;2024-03-08T00:10:50;97933.00;;;4.70
19040;BMP180;9652;49.014;12.052;2024-03-08T00:13:17;97930.00;;;4.70
19040;BMP180;9652;49.014;12.052;2024-03-08T00:15:47;97917.00;;;4.70
19040;BMP180;9652;49.014;12.052;2024-03-08T00:18:14;97937.00;;;4.70
19040;BMP180;9652;49.014;12.052;2024-03-08T00:20:41;97931.00;;;4.70
19040;BMP180;9652;49.014;12.052;2024-03-08T00:23:09;97932.00;;;4.70
19040;BMP180;9652;49.014;12.052;2024-03-08T00:25:37;97933.00;;;4.60
19040;BMP180;9652;49.014;12.052;2024-03-08T00:28:05;97920.00;;;4.60
19040;BMP180;9652;49.014;12.052;2024-03-08T00:30:32;97921.00;;;4.60
19040;BMP180;9652;49.014;12.052;2024-03-08T00:33:00;97909.00;;;4.50
19040;BMP180;9652;49.014;12.052;2024-03-08T00:35:28;97921.00;;;4.50
19040;BMP180;9652;49.014;12.052;2024-03-08T00:37:55;97918.00;;;4.50
19040;BMP180;9652;49.014;12.052;2024-03-08T00:40:22;97917.00;;;4.50
19040;BMP180;9652;49.014;12.052;2024-03-08T00:42:49;97899.00;;;4.40
19040;BMP180;9652;49.014;12.052;2024-03-08T00:45:16;97907.00;;;4.40
19040;BMP180;9652;49.014;12.052;2024-03-08T00:47:43;97902.00;;;4.40
19040;BMP180;9652;49.014;12.052;2024-03-08T00:50:12;97914.00;;;4.30
19040;BMP180;9652;49.014;12.052;2024-03-08T00:52:39;97906.00;;;4.40
19040;BMP180;9652;49.014;12.052;2024-03-08T00:55:07;97909.00;;;4.30
19040;BMP180;9652;49.014;12.052;2024-03-08T00:57:36;97898.00;;;4.30
19040;BMP180;9652;49.014;12.052;2024-03-08T01:00:06;97907.00;;;4.30
19040;BMP180;9652;49.014;12.052;2024-03-08T01:02:37;97890.00;;;4.30
19040;BMP180;9652;49.014;12.052;2024-03-08T01:05:06;97901.00;;;4.30
19040;BMP180;9652;49.014;12.052;2024-03-08T01:07:35;97867.00;;;4.40
19040;BMP180;9652;49.014;12.052;2024-03-08T01:10:02;97899.00;;;4.40
19040;BMP180;9652;49.014;12.052;2024-03-08T01:12:29;97889.00;;;4.40
19040;BMP180;9652;49.014;12.052;2024-03-08T01:14:56;97855.00;;;4.40
19040;BMP180;9652;49.014;12.052;2024-03-08T01:17:24;97885.00;;;4.40
19040;BMP180;9652;49.014;12.052;2024-03-08T01:19:51;97875.00;;;4.40
19040;BMP180;9652;49.014;12.052;2024-03-08T01:22:19;97889.00;;;4.40
19040;BMP180;9652;49.014;12.052;2024-03-08T01:24:47;97821.00;;;4.30
19040;BMP180;9652;49.014;12.052;2024-03-08T01:27:15;97848.00;;;4.30
19040;BMP180;9652;49.014;12.052;2024-03-08T01:29:42;97868.00;;;4.30
19040;BMP180;9652;49.014;12.052;2024-03-08T01:32:09;97870.00;;;4.30
19040;BMP180;9652;49.014;12.052;2024-03-08T01:34:36;97865.00;;;4.30
19040;BMP180;9652;49.014;12.052;2024-03-08T01:37:03;97812.00;;;4.20
19040;BMP180;9652;49.014;12.052;2024-03-08T01:39:30;97848.00;;;4.20
19040;BMP180;9652;49.014;12.052;2024-03-08T01:41:59;97821.00;;;4.20
19040;BMP180;9652;49.014;12.052;2024-03-08T01:44:26;97852.00;;;4.20
19040;BMP180;9652;49.014;12.052;2024-03-08T01:46:54;97837.00;;;4.20
19040;BMP180;9652;49.014;12.052;2024-03-08T01:49:22;97814.00;;;4.20
19040;BMP180;9652;49.014;12.052;2024-03-08T01:51:51;97790.00;;;4.20
19040;BMP180;9652;49.014;12.052;2024-03-08T01:54:19;97821.00;;;4.20
19040;BMP180;9652;49.014;12.052;2024-03-08T01:56:47;97836.00;;;4.20
19040;BMP180;9652;49.014;12.052;2024-03-08T01:59:17;97820.00;;;4.20
19040;BMP180;9652;49.014;12.052;2024-03-08T02:01:44;97833.00;;;4.10
19040;BMP180;9652;49.014;12.052;2024-03-08T02:04:11;97772.00;;;4.10
19040;BMP180;9652;49.014;12.052;2024-03-08T02:06:38;97828.00;;;4.10
19040;BMP180;9652;49.014;12.052;2024-03-08T02:09:05;97799.00;;;4.10
19040;BMP180;9652;49.014;12.052;2024-03-08T02:11:33;97826.00;;;4.00
19040;BMP180;9652;49.014;12.052;2024-03-08T02:14:02;97703.00;;;4.00
19040;BMP180;9652;49.014;12.052;2024-03-08T02:16:31;97825.00;;;4.00
19040;BMP180;9652;49.014;12.052;2024-03-08T02:18:58;97812.00;;;4.00
19040;BMP180;9652;49.014;12.052;2024-03-08T02:21:27;97767.00;;;4.00
19040;BMP180;9652;49.014;12.052;2024-03-08T02:23:55;97799.00;;;4.00
19040;BMP180;9652;49.014;12.052;2024-03-08T02:26:22;97752.00;;;4.00
19040;BMP180;9652;49.014;12.052;2024-03-08T02:28:50;97806.00;;;4.00
19040;BMP180;9652;49.014;12.052;2024-03-08T02:31:17;97773.00;;;4.00
19040;BMP180;9652;49.014;12.052;2024-03-08T02:33:44;97776.00;;;4.00
19040;BMP180;9652;49.014;12.052;2024-03-08T02:36:13;97787.00;;;4.00
19040;BMP180;9652;49.014;12.052;2024-03-08T02:38:41;97794.00;;;4.00
19040;BMP180;9652;49.014;12.052;2024-03-08T02:41:08;97788.00;;;4.00
19040;BMP180;9652;49.014;12.052;2024-03-08T02:43:36;97726.00;;;4.00
19040;BMP180;9652;49.014;12.052;2024-03-08T02:46:04;97716.00;;;4.00
19040;BMP180;9652;49.014;12.052;2024-03-08T02:48:31;97790.00;;;4.00
19040;BMP180;9652;49.014;12.052;2024-03-08T02:50:59;97771.00;;;4.00
19040;BMP180;9652;49.014;12.052;2024-03-08T02:53:27;97818.00;;;4.00
19040;BMP180;9652;49.014;12.052;2024-03-08T02:55:56;97774.00;;;4.00
19040;BMP180;9652;49.014;12.052;2024-03-08T02:58:23;97696.00;;;3.90
19040;BMP180;9652;49.014;12.052;2024-03-08T03:00:50;97776.00;;;3.90
19040;BMP180;9652;49.014;12.052;2024-03-08T03:03:17;97793.00;;;3.90
19040;BMP180;9652;49.014;12.052;2024-03-08T03:05:44;97787.00;;;3.80
19040;BMP180;9652;49.014;12.052;2024-03-08T03:08:11;97703.00;;;3.80
19040;BMP180;9652;49.014;12.052;2024-03-08T03:10:39;97771.00;;;3.80
19040;BMP180;9652;49.014;12.052;2024-03-08T03:13:07;97792.00;;;3.70
19040;BMP180;9652;49.014;12.052;2024-03-08T03:15:34;97791.00;;;3.70
19040;BMP180;9652;49.014;12.052;2024-03-08T03:18:02;97778.00;;;3.70
19040;BMP180;9652;49.014;12.052;2024-03-08T03:20:29;97767.00;;;3.70
19040;BMP180;9652;49.014;12.052;2024-03-08T03:22:59;97740.00;;;3.70
19040;BMP180;9652;49.014;12.052;2024-03-08T03:25:28;97776.00;;;3.70
19040;BMP180;9652;49.014;12.052;2024-03-08T03:28:00;97672.00;;;3.70
19040;BMP180;9652;49.014;12.052;2024-03-08T03:30:28;97665.00;;;3.70
19040;BMP180;9652;49.014;12.052;2024-03-08T03:32:59;97787.00;;;3.70
19040;BMP180;9652;49.014;12.052;2024-03-08T03:35:28;97772.00;;;3.70
19040;BMP180;9652;49.014;12.052;2024-03-08T03:37:56;97759.00;;;3.70
19040;BMP180;9652;49.014;12.052;2024-03-08T03:40:32;97684.00;;;3.70
19040;BMP180;9652;49.014;12.052;2024-03-08T03:43:00;97770.00;;;3.70
19040;BMP180;9652;49.014;12.052;2024-03-08T03:45:30;97743.00;;;3.70
19040;BMP180;9652;49.014;12.052;2024-03-08T03:48:02;97757.00;;;3.70
19040;BMP180;9652;49.014;12.052;2024-03-08T03:50:29;97692.00;;;3.70
19040;BMP180;9652;49.014;12.052;2024-03-08T03:52:56;97761.00;;;3.70
19040;BMP180;9652;49.014;12.052;2024-03-08T03:55:24;97728.00;;;3.70
19040;BMP180;9652;49.014;12.052;2024-03-08T03:57:51;97754.00;;;3.70
19040;BMP180;9652;49.014;12.052;2024-03-08T04:00:19;97757.00;;;3.70
19040;BMP180;9652;49.014;12.052;2024-03-08T04:02:47;97751.00;;;3.70
19040;BMP180;9652;49.014;12.052;2024-03-08T04:05:14;97735.00;;;3.60
19040;BMP180;9652;49.014;12.052;2024-03-08T04:07:41;97753.00;;;3.70
19040;BMP180;9652;49.014;12.052;2024-03-08T04:10:12;97695.00;;;3.70
19040;BMP180;9652;49.014;12.052;2024-03-08T04:12:39;97745.00;;;3.70
19040;BMP180;9652;49.014;12.052;2024-03-08T04:15:07;97712.00;;;3.70
19040;BMP180;9652;49.014;12.052;2024-03-08T04:17:34;97722.00;;;3.70
19040;BMP180;9652;49.014;12.052;2024-03-08T04:20:05;97693.00;;;3.70
19040;BMP180;9652;49.014;12.052;2024-03-08T04:22:36;97731.00;;;3.40
19040;BMP180;9652;49.014;12.052;2024-03-08T04:25:03;97748.00;;;3.60
19040;BMP180;9652;49.014;12.052;2024-03-08T04:27:32;97732.00;;;3.60
19040;BMP180;9652;49.014;12.052;2024-03-08T04:30:00;97734.00;;;3.60
19040;BMP180;9652;49.014;12.052;2024-03-08T04:32:27;97717.00;;;3.60
19040;BMP180;9652;49.014;12.052;2024-03-08T04:34:55;97737.00;;;3.60
19040;BMP180;9652;49.014;12.052;2024-03-08T04:37:24;97721.00;;;3.60
19040;BMP180;9652;49.014;12.052;2024-03-08T04:39:51;97690.00;;;3.60
19040;BMP180;9652;49.014;12.052;2024-03-08T04:42:18;97721.00;;;3.60
19040;BMP180;9652;49.014;12.052;2024-03-08T04:44:45;97728.00;;;3.20
19040;BMP180;9652;49.014;12.052;2024-03-08T04:47:13;97718.00;;;3.60
19040;BMP180;9652;49.014;12.052;2024-03-08T04:49:40;97711.00;;;3.60
19040;BMP180;9652;49.014;12.052;2024-03-08T04:52:07;97714.00;;;3.60
19040;BMP180;9652;49.014;12.052;2024-03-08T04:54:35;97723.00;;;3.60
19040;BMP180;9652;49.014;12.052;2024-03-08T04:57:02;97708.00;;;3.60
19040;BMP180;9652;49.014;12.052;2024-03-08T04:59:30;97729.00;;;3.60
19040;BMP180;9652;49.014;12.052;2024-03-08T05:01:57;97719.00;;;3.60
19040;BMP180;9652;49.014;12.052;2024-03-08T05:04:25;97712.00;;;3.60
19040;BMP180;9652;49.014;12.052;2024-03-08T05:06:52;97704.00;;;3.60
19040;BMP180;9652;49.014;12.052;2024-03-08T05:09:19;97730.00;;;3.60
19040;BMP180;9652;49.014;12.052;2024-03-08T05:11:47;97721.00;;;3.10
19040;BMP180;9652;49.014;12.052;2024-03-08T05:14:16;97614.00;;;3.50
19040;BMP180;9652;49.014;12.052;2024-03-08T05:16:46;97711.00;;;3.50
19040;BMP180;9652;49.014;12.052;2024-03-08T05:19:14;97704.00;;;3.40
19040;BMP180;9652;49.014;12.052;2024-03-08T05:21:43;97713.00;;;3.40
19040;BMP180;9652;49.014;12.052;2024-03-08T05:24:11;97669.00;;;3.40
19040;BMP180;9652;49.014;12.052;2024-03-08T05:26:39;97696.00;;;3.40
19040;BMP180;9652;49.014;12.052;2024-03-08T05:29:07;97621.00;;;3.40
19040;BMP180;9652;49.014;12.052;2024-03-08T05:31:45;97598.00;;;3.40
19040;BMP180;9652;49.014;12.052;2024-03-08T05:34:13;97713.00;;;3.40
19040;BMP180;9652;49.014;12.052;2024-03-08T05:36:40;97649.00;;;3.40
19040;BMP180;9652;49.014;12.052;2024-03-08T05:39:10;97709.00;;;3.40
19040;BMP180;9652;49.014;12.052;2024-03-08T05:41:38;97660.00;;;3.30
19040;BMP180;9652;49.014;12.052;2024-03-08T05:44:07;97699.00;;;3.40
19040;BMP180;9652;49.014;12.052;2024-03-08T05:46:35;97647.00;;;3.40
19040;BMP180;9652;49.014;12.052;2024-03-08T05:49:02;97701.00;;;3.40
19040;BMP180;9652;49.014;12.052;2024-03-08T05:51:31;97686.00;;;3.40
19040;BMP180;9652;49.014;12.052;2024-03-08T05:54:00;97707.00;;;3.40
19040;BMP180;9652;49.014;12.052;2024-03-08T05:56:29;97708.00;;;3.40
19040;BMP180;9652;49.014;12.052;2024-03-08T05:58:56;97705.00;;;3.30
19040;BMP180;9652;49.014;12.052;2024-03-08T06:01:25;97690.00;;;3.30
19040;BMP180;9652;49.014;12.052;2024-03-08T06:03:52;97618.00;;;3.30
19040;BMP180;9652;49.014;12.052;2024-03-08T06:06:22;97681.00;;;3.30
19040;BMP180;9652;49.014;12.052;2024-03-08T06:08:49;97698.00;;;3.30
19040;BMP180;9652;49.014;12.052;2024-03-08T06:11:18;97704.00;;;3.30
19040;BMP180;9652;49.014;12.052;2024-03-08T06:13:46;97711.00;;;3.30
19040;BMP180;9652;49.014;12.052;2024-03-08T06:16:13;97705.00;;;3.30
19040;BMP180;9652;49.014;12.052;2024-03-08T06:18:42;97705.00;;;3.30
19040;BMP180;9652;49.014;12.052;2024-03-08T06:21:09;97688.00;;;3.30
19040;BMP180;9652;49.014;12.052;2024-03-08T06:23:37;97709.00;;;3.30
19040;BMP180;9652;49.014;12.052;2024-03-08T06:26:05;97694.00;;;3.30
19040;BMP180;9652;49.014;12.052;2024-03-08T06:28:32;97706.00;;;3.30
19040;BMP180;9652;49.014;12.052;2024-03-08T06:31:01;97663.00;;;3.40
19040;BMP180;9652;49.014;12.052;2024-03-08T06:33:29;97659.00;;;3.40
19040;BMP180;9652;49.014;12.052;2024-03-08T06:35:59;97708.00;;;3.40
19040;BMP180;9652;49.014;12.052;2024-03-08T06:38:26;97655.00;;;3.40
19040;BMP180;9652;49.014;12.052;2024-03-08T06:40:54;97676.00;;;3.40
19040;BMP180;9652;49.014;12.052;2024-03-08T06:43:21;97690.00;;;3.50
19040;BMP180;9652;49.014;12.052;2024-03-08T06:45:48;97691.00;;;3.50
19040;BMP180;9652;49.014;12.052;2024-03-08T06:48:15;97657.00;;;3.60
19040;BMP180;9652;49.014;12.052;2024-03-08T06:50:43;97703.00;;;3.70
19040;BMP180;9652;49.014;12.052;2024-03-08T06:53:12;97711.00;;;3.70
19040;BMP180;9652;49.014;12.052;2024-03-08T06:55:40;97684.00;;;3.80
19040;BMP180;9652;49.014;12.052;2024-03-08T06:58:07;97578.00;;;3.80
19040;BMP180;9652;49.014;12.052;2024-03-08T07:00:36;97668.00;;;3.90
19040;BMP180;9652;49.014;12.052;2024-03-08T07:03:07;97609.00;;;4.00
19040;BMP180;9652;49.014;12.052;2024-03-08T07:05:38;97641.00;;;4.00
19040;BMP180;9652;49.014;12.052;2024-03-08T07:08:06;97681.00;;;4.10
19040;BMP180;9652;49.014;12.052;2024-03-08T07:10:34;97666.00;;;4.20
19040;BMP180;9652;49.014;12.052;2024-03-08T07:13:03;97653.00;;;4.30
19040;BMP180;9652;49.014;12.052;2024-03-08T07:15:30;97683.00;;;4.30
19040;BMP180;9652;49.014;12.052;2024-03-08T07:17:58;97672.00;;;4.40
19040;BMP180;9652;49.014;12.052;2024-03-08T07:20:25;97678.00;;;4.50
19040;BMP180;9652;49.014;12.052;2024-03-08T07:22:54;97674.00;;;4.60
19040;BMP180;9652;49.014;12.052;2024-03-08T07:25:22;97672.00;;;4.70
19040;BMP180;9652;49.014;12.052;2024-03-08T07:27:51;97681.00;;;4.70
19040;BMP180;9652;49.014;12.052;2024-03-08T07:30:19;97667.00;;;4.80
19040;BMP180;9652;49.014;12.052;2024-03-08T07:33:04;97674.00;;;4.90
19040;BMP180;9652;49.014;12.052;2024-03-08T07:35:33;97667.00;;;5.00
19040;BMP180;9652;49.014;12.052;2024-03-08T07:38:04;97657.00;;;5.00
19040;BMP180;9652;49.014;12.052;2024-03-08T07:40:31;97669.00;;;5.10
19040;BMP180;9652;49.014;12.052;2024-03-08T07:43:00;97670.00;;;5.20
19040;BMP180;9652;49.014;12.052;2024-03-08T07:45:28;97667.00;;;5.30
19040;BMP180;9652;49.014;12.052;2024-03-08T07:47:56;97652.00;;;5.40
19040;BMP180;9652;49.014;12.052;2024-03-08T07:50:23;97671.00;;;5.50
19040;BMP180;9652;49.014;12.052;2024-03-08T07:52:50;97678.00;;;5.60
19040;BMP180;9652;49.014;12.052;2024-03-08T07:55:18;97667.00;;;5.60
19040;BMP180;9652;49.014;12.052;2024-03-08T07:57:45;97668.00;;;5.80
19040;BMP180;9652;49.014;12.052;2024-03-08T08:00:16;97659.00;;;5.80
19040;BMP180;9652;49.014;12.052;2024-03-08T08:02:44;97663.00;;;5.90
19040;BMP180;9652;49.014;12.052;2024-03-08T08:05:12;97630.00;;;6.00
19040;BMP180;9652;49.014;12.052;2024-03-08T08:07:40;97644.00;;;6.10
19040;BMP180;9652;49.014;12.052;2024-03-08T08:10:09;97601.00;;;6.20
19040;BMP180;9652;49.014;12.052;2024-03-08T08:12:42;97652.00;;;6.30
19040;BMP180;9652;49.014;12.052;2024-03-08T08:15:10;97658.00;;;6.40
19040;BMP180;9652;49.014;12.052;2024-03-08T08:17:38;97646.00;;;6.50
19040;BMP180;9652;49.014;12.052;2024-03-08T08:20:06;97656.00;;;6.50
19040;BMP180;9652;49.014;12.052;2024-03-08T08:22:34;97659.00;;;6.60
19040;BMP180;9652;49.014;12.052;2024-03-08T08:25:01;97656.00;;;6.70
19040;BMP180;9652;49.014;12.052;2024-03-08T08:27:28;97654.00;;;6.80
19040;BMP180;9652;49.014;12.052;2024-03-08T08:29:55;97640.00;;;6.90
19040;BMP180;9652;49.014;12.052;2024-03-08T08:32:23;97651.00;;;7.00
19040;BMP180;9652;49.014;12.052;2024-03-08T08:34:51;97642.00;;;7.10
19040;BMP180;9652;49.014;12.052;2024-03-08T08:37:18;97635.00;;;7.20
19040;BMP180;9652;49.014;12.052;2024-03-08T08:39:45;97642.00;;;7.30
19040;BMP180;9652;49.014;12.052;2024-03-08T08:42:12;97615.00;;;7.30
19040;BMP180;9652;49.014;12.052;2024-03-08T08:44:39;97620.00;;;7.50
19040;BMP180;9652;49.014;12.052;2024-03-08T08:47:06;97627.00;;;7.50
19040;BMP180;9652;49.014;12.052;2024-03-08T08:49:33;97581.00;;;7.60
19040;BMP180;9652;49.014;12.052;2024-03-08T08:52:02;97629.00;;;7.70
19040;BMP180;9652;49.014;12.052;2024-03-08T08:54:30;97619.00;;;7.80
19040;BMP180;9652;49.014;12.052;2024-03-08T08:56:57;97615.00;;;7.80
19040;BMP180;9652;49.014;12.052;2024-03-08T08:59:24;97623.00;;;7.90
19040;BMP180;9652;49.014;12.052;2024-03-08T09:01:52;97597.00;;;8.00
19040;BMP180;9652;49.014;12.052;2024-03-08T09:04:20;97616.00;;;8.00
19040;BMP180;9652;49.014;12.052;2024-03-08T09:06:48;97588.00;;;8.10
19040;BMP180;9652;49.014;12.052;2024-03-08T09:09:17;97608.00;;;8.20
19040;BMP180;9652;49.014;12.052;2024-03-08T09:11:44;97604.00;;;8.30
19040;BMP180;9652;49.014;12.052;2024-03-08T09:14:12;97619.00;;;8.30
19040;BMP180;9652;49.014;12.052;2024-03-08T09:16:40;97605.00;;;8.40
19040;BMP180;9652;49.014;12.052;2024-03-08T09:19:07;97594.00;;;8.50
19040;BMP180;9652;49.014;12.052;2024-03-08T09:21:36;97599.00;;;8.50
19040;BMP180;9652;49.014;12.052;2024-03-08T09:24:06;97597.00;;;8.60
19040;BMP180;9652;49.014;12.052;2024-03-08T09:26:34;97587.00;;;8.70
19040;BMP180;9652;49.014;12.052;2024-03-08T09:29:02;97556.00;;;8.80
19040;BMP180;9652;49.014;12.052;2024-03-08T09:31:31;97590.00;;;8.80
19040;BMP180;9652;49.014;12.052;2024-03-08T09:33:58;97577.00;;;8.90
19040;BMP180;9652;49.014;12.052;2024-03-08T09:36:25;97571.00;;;9.00
19040;BMP180;9652;49.014;12.052;2024-03-08T09:38:53;97543.00;;;9.10
19040;BMP180;9652;49.014;12.052;2024-03-08T09:41:20;97585.00;;;9.10
19040;BMP180;9652;49.014;12.052;2024-03-08T09:43:49;97568.00;;;9.20
19040;BMP180;9652;49.014;12.052;2024-03-08T09:46:18;97576.00;;;9.20
19040;BMP180;9652;49.014;12.052;2024-03-08T09:48:45;97560.00;;;9.20
19040;BMP180;9652;49.014;12.052;2024-03-08T09:51:13;97557.00;;;9.30
19040;BMP180;9652;49.014;12.052;2024-03-08T09:53:41;97554.00;;;9.40
19040;BMP180;9652;49.014;12.052;2024-03-08T09:56:09;97552.00;;;9.40
19040;BMP180;9652;49.014;12.052;2024-03-08T09:58:37;97556.00;;;9.50
19040;BMP180;9652;49.014;12.052;2024-03-08T10:01:21;97555.00;;;9.50
19040;BMP180;9652;49.014;12.052;2024-03-08T10:03:48;97545.00;;;9.60
19040;BMP180;9652;49.014;12.052;2024-03-08T10:06:16;97533.00;;;9.70
19040;BMP180;9652;49.014;12.052;2024-03-08T10:08:44;97535.00;;;9.70
19040;BMP180;9652;49.014;12.052;2024-03-08T10:11:11;97547.00;;;9.80
19040;BMP180;9652;49.014;12.052;2024-03-08T10:13:39;97540.00;;;9.90
19040;BMP180;9652;49.014;12.052;2024-03-08T10:16:08;97538.00;;;10.00
19040;BMP180;9652;49.014;12.052;2024-03-08T10:18:36;97474.00;;;10.00
19040;BMP180;9652;49.014;12.052;2024-03-08T10:21:05;97532.00;;;10.10
19040;BMP180;9652;49.014;12.052;2024-03-08T10:23:33;97524.00;;;10.20
19040;BMP180;9652;49.014;12.052;2024-03-08T10:26:14;97530.00;;;10.20
19040;BMP180;9652;49.014;12.052;2024-03-08T10:28:42;97532.00;;;10.40
19040;BMP180;9652;49.014;12.052;2024-03-08T10:31:09;97530.00;;;10.40
19040;BMP180;9652;49.014;12.052;2024-03-08T10:33:38;97528.00;;;10.50
19040;BMP180;9652;49.014;12.052;2024-03-08T10:36:07;97518.00;;;10.60
19040;BMP180;9652;49.014;12.052;2024-03-08T10:38:37;97525.00;;;10.70
19040;BMP180;9652;49.014;12.052;2024-03-08T10:41:06;97521.00;;;10.70
19040;BMP180;9652;49.014;12.052;2024-03-08T10:43:52;97523.00;;;10.80
19040;BMP180;9652;49.014;12.052;2024-03-08T10:46:32;97500.00;;;10.90
19040;BMP180;9652;49.014;12.052;2024-03-08T10:49:06;97523.00;;;11.00
19040;BMP180;9652;49.014;12.052;2024-03-08T10:51:36;97494.00;;;11.00
19040;BMP180;9652;49.014;12.052;2024-03-08T10:54:06;97511.00;;;11.10
19040;BMP180;9652;49.014;12.052;2024-03-08T10:56:33;97490.00;;;11.20
19040;BMP180;9652;49.014;12.052;2024-03-08T10:59:01;97518.00;;;11.20
19040;BMP180;9652;49.014;12.052;2024-03-08T11:01:30;97485.00;;;11.30
19040;BMP180;9652;49.014;12.052;2024-03-08T11:03:57;97499.00;;;11.40
19040;BMP180;9652;49.014;12.052;2024-03-08T11:06:42;97477.00;;;11.50
19040;BMP180;9652;49.014;12.052;2024-03-08T11:09:28;97490.00;;;11.50
19040;BMP180;9652;49.014;12.052;2024-03-08T11:12:28;97479.00;;;11.60
19040;BMP180;9652;49.014;12.052;2024-03-08T11:14:59;97485.00;;;11.60
19040;BMP180;9652;49.014;12.052;2024-03-08T11:17:45;97473.00;;;11.70
19040;BMP180;9652;49.014;12.052;2024-03-08T11:20:14;97425.00;;;11.70
19040;BMP180;9652;49.014;12.052;2024-03-08T11:22:49;97455.00;;;11.80
19040;BMP180;9652;49.014;12.052;2024-03-08T11:25:37;97472.00;;;11.80
19040;BMP180;9652;49.014;12.052;2024-03-08T11:28:12;97458.00;;;11.80
19040;BMP180;9652;49.014;12.052;2024-03-08T11:31:22;97450.00;;;11.90
19040;BMP180;9652;49.014;12.052;2024-03-08T11:33:50;97453.00;;;12.00
19040;BMP180;9652;49.014;12.052;2024-03-08T11:36:21;97447.00;;;12.00
19040;BMP180;9652;49.014;12.052;2024-03-08T11:38:52;97443.00;;;12.00
19040;BMP180;9652;49.014;12.052;2024-03-08T11:41:23;97440.00;;;12.10
19040;BMP180;9652;49.014;12.052;2024-03-08T11:44:03;97426.00;;;12.10
19040;BMP180;9652;49.014;12.052;2024-03-08T11:46:32;97427.00;;;12.20
19040;BMP180;9652;49.014;12.052;2024-03-08T11:49:00;97428.00;;;12.30
19040;BMP180;9652;49.014;12.052;2024-03-08T11:51:27;97422.00;;;12.40
19040;BMP180;9652;49.014;12.052;2024-03-08T11:53:57;97413.00;;;12.40
19040;BMP180;9652;49.014;12.052;2024-03-08T11:56:25;97416.00;;;12.50
19040;BMP180;9652;49.014;12.052;2024-03-08T11:58:54;97394.00;;;12.60
19040;BMP180;9652;49.014;12.052;2024-03-08T12:01:23;97402.00;;;12.60
19040;BMP180;9652;49.014;12.052;2024-03-08T12:03:53;97403.00;;;12.70
19040;BMP180;9652;49.014;12.052;2024-03-08T12:06:21;97370.00;;;12.70
19040;BMP180;9652;49.014;12.052;2024-03-08T12:08:48;97385.00;;;12.70
19040;BMP180;9652;49.014;12.052;2024-03-08T12:11:18;97392.00;;;12.80
19040;BMP180;9652;49.014;12.052;2024-03-08T12:13:49;97376.00;;;12.80
19040;BMP180;9652;49.014;12.052;2024-03-08T12:16:17;97384.00;;;12.90
19040;BMP180;9652;49.014;12.052;2024-03-08T12:18:45;97368.00;;;12.90
19040;BMP180;9652;49.014;12.052;2024-03-08T12:21:13;97354.00;;;12.90
19040;BMP180;9652;49.014;12.052;2024-03-08T12:23:44;97377.00;;;13.00
19040;BMP180;9652;49.014;12.052;2024-03-08T12:26:13;97369.00;;;13.00
19040;BMP180;9652;49.014;12.052;2024-03-08T12:28:44;97363.00;;;13.10
19040;BMP180;9652;49.014;12.052;2024-03-08T12:31:15;97359.00;;;13.10
19040;BMP180;9652;49.014;12.052;2024-03-08T12:33:49;97278.00;;;13.10
19040;BMP180;9652;49.014;12.052;2024-03-08T12:36:18;97346.00;;;13.20
19040;BMP180;9652;49.014;12.052;2024-03-08T12:38:46;97356.00;;;13.20
19040;BMP180;9652;49.014;12.052;2024-03-08T12:41:14;97332.00;;;13.20
19040;BMP180;9652;49.014;12.052;2024-03-08T12:43:42;97341.00;;;13.20
19040;BMP180;9652;49.014;12.052;2024-03-08T12:46:14;97336.00;;;13.30
19040;BMP180;9652;49.014;12.052;2024-03-08T12:48:42;97341.00;;;13.30
19040;BMP180;9652;49.014;12.052;2024-03-08T12:51:13;97332.00;;;13.40
19040;BMP180;9652;49.014;12.052;2024-03-08T12:53:41;97320.00;;;13.40
19040;BMP180;9652;49.014;12.052;2024-03-08T12:56:10;97328.00;;;13.40
19040;BMP180;9652;49.014;12.052;2024-03-08T12:58:37;97335.00;;;13.50
19040;BMP180;9652;49.014;12.052;2024-03-08T13:01:07;97332.00;;;13.50
19040;BMP180;9652;49.014;12.052;2024-03-08T13:03:35;97313.00;;;13.60
19040;BMP180;9652;49.014;12.052;2024-03-08T13:06:04;97316.00;;;13.60
19040;BMP180;9652;49.014;12.052;2024-03-08T13:08:35;97309.00;;;13.60
19040;BMP180;9652;49.014;12.052;2024-03-08T13:11:05;97285.00;;;13.70
19040;BMP180;9652;49.014;12.052;2024-03-08T13:13:32;97310.00;;;13.70
19040;BMP180;9652;49.014;12.052;2024-03-08T13:16:01;97314.00;;;13.70
19040;BMP180;9652;49.014;12.052;2024-03-08T13:18:30;97308.00;;;13.70
19040;BMP180;9652;49.014;12.052;2024-03-08T13:20:57;97300.00;;;13.70
19040;BMP180;9652;49.014;12.052;2024-03-08T13:23:24;97284.00;;;13.70
19040;BMP180;9652;49.014;12.052;2024-03-08T13:25:51;97302.00;;;13.70
19040;BMP180;9652;49.014;12.052;2024-03-08T13:28:18;97306.00;;;13.70
19040;BMP180;9652;49.014;12.052;2024-03-08T13:30:49;97304.00;;;13.70
19040;BMP180;9652;49.014;12.052;2024-03-08T13:33:16;97303.00;;;13.80
19040;BMP180;9652;49.014;12.052;2024-03-08T13:35:44;97305.00;;;13.80
19040;BMP180;9652;49.014;12.052;2024-03-08T13:38:12;97306.00;;;13.80
19040;BMP180;9652;49.014;12.052;2024-03-08T13:40:40;97305.00;;;13.80
19040;BMP180;9652;49.014;12.052;2024-03-08T13:43:07;97294.00;;;13.80
19040;BMP180;9652;49.014;12.052;2024-03-08T13:45:36;97271.00;;;13.80
19040;BMP180;9652;49.014;12.052;2024-03-08T13:48:08;97298.00;;;13.80
19040;BMP180;9652;49.014;12.052;2024-03-08T13:50:38;97291.00;;;13.90
19040;BMP180;9652;49.014;12.052;2024-03-08T13:53:07;97292.00;;;13.90
19040;BMP180;9652;49.014;12.052;2024-03-08T13:55:35;97274.00;;;13.90
19040;BMP180;9652;49.014;12.052;2024-03-08T13:58:03;97283.00;;;13.90
19040;BMP180;9652;49.014;12.052;2024-03-08T14:00:35;97259.00;;;14.00
19040;BMP180;9652;49.014;12.052;2024-03-08T14:03:02;97269.00;;;14.00
19040;BMP180;9652;49.014;12.052;2024-03-08T14:05:33;97267.00;;;14.00
19040;BMP180;9652;49.014;12.052;2024-03-08T14:08:01;97255.00;;;14.00
19040;BMP180;9652;49.014;12.052;2024-03-08T14:10:31;97273.00;;;14.00
19040;BMP180;9652;49.014;12.052;2024-03-08T14:12:58;97236.00;;;14.10
19040;BMP180;9652;49.014;12.052;2024-03-08T14:15:25;97258.00;;;14.00
19040;BMP180;9652;49.014;12.052;2024-03-08T14:17:53;97264.00;;;14.00
19040;BMP180;9652;49.014;12.052;2024-03-08T14:20:21;97247.00;;;14.00
19040;BMP180;9652;49.014;12.052;2024-03-08T14:22:51;97255.00;;;14.10
19040;BMP180;9652;49.014;12.052;2024-03-08T14:25:18;97252.00;;;14.10
19040;BMP180;9652;49.014;12.052;2024-03-08T14:27:47;97199.00;;;14.10